Terminal Aerodrome Forecast
Issued by NWS

Current Version | Previous Version | Text Only | Print | Product List | Glossary On
Versions: 1 2 3 4 5 6 7 8 9 10 11 12 13 14 15
000
FTUS42 KTAE 150500
TAFVLD
TAF
KVLD 150538Z 1506/1606 00000KT P6SM OVC030
     FM151000 00000KT 5SM BR BKN003
     FM151400 16003KT P6SM SCT030
     FM152000 19006KT P6SM VCTS SCT040CB BKN250
     FM160000 21002KT P6SM OVC250=

USA.gov is the U.S. government's official web portal to all federal, state and local government web resources and services.